sensor_id;sensor_type;location;lat;lon;timestamp;P1;durP1;ratioP1;P2;durP2;ratioP2
17510;SDS011;8873;48.818;9.422;2022-09-13T00:00:42;5.80;;;4.28;;
17510;SDS011;8873;48.818;9.422;2022-09-13T00:03:11;7.53;;;4.40;;
17510;SDS011;8873;48.818;9.422;2022-09-13T00:05:39;5.05;;;4.07;;
17510;SDS011;8873;48.818;9.422;2022-09-13T00:08:06;7.55;;;4.80;;
17510;SDS011;8873;48.818;9.422;2022-09-13T00:10:35;7.70;;;4.50;;
17510;SDS011;8873;48.818;9.422;2022-09-13T00:13:03;6.72;;;4.68;;
17510;SDS011;8873;48.818;9.422;2022-09-13T00:15:31;6.22;;;4.50;;
17510;SDS011;8873;48.818;9.422;2022-09-13T00:17:59;5.60;;;4.78;;
17510;SDS011;8873;48.818;9.422;2022-09-13T00:20:27;8.05;;;4.38;;
17510;SDS011;8873;48.818;9.422;2022-09-13T00:22:54;5.43;;;4.22;;
17510;SDS011;8873;48.818;9.422;2022-09-13T00:25:24;5.97;;;4.30;;
17510;SDS011;8873;48.818;9.422;2022-09-13T00:27:53;8.50;;;5.18;;
17510;SDS011;8873;48.818;9.422;2022-09-13T00:30:20;5.60;;;4.60;;
17510;SDS011;8873;48.818;9.422;2022-09-13T00:32:48;20.38;;;5.38;;
17510;SDS011;8873;48.818;9.422;2022-09-13T00:35:16;6.57;;;5.20;;
17510;SDS011;8873;48.818;9.422;2022-09-13T00:37:43;6.45;;;4.45;;
17510;SDS011;8873;48.818;9.422;2022-09-13T00:40:11;5.00;;;4.50;;
17510;SDS011;8873;48.818;9.422;2022-09-13T00:42:38;6.90;;;4.47;;
17510;SDS011;8873;48.818;9.422;2022-09-13T00:45:15;5.82;;;4.22;;
17510;SDS011;8873;48.818;9.422;2022-09-13T00:47:44;6.22;;;4.57;;
17510;SDS011;8873;48.818;9.422;2022-09-13T00:50:15;5.40;;;4.65;;
17510;SDS011;8873;48.818;9.422;2022-09-13T00:52:43;5.70;;;4.40;;
17510;SDS011;8873;48.818;9.422;2022-09-13T00:55:13;7.10;;;4.97;;
17510;SDS011;8873;48.818;9.422;2022-09-13T00:57:42;5.65;;;4.70;;
17510;SDS011;8873;48.818;9.422;2022-09-13T01:00:10;7.50;;;4.45;;
17510;SDS011;8873;48.818;9.422;2022-09-13T01:02:40;5.55;;;4.80;;
17510;SDS011;8873;48.818;9.422;2022-09-13T01:05:09;4.40;;;3.92;;
17510;SDS011;8873;48.818;9.422;2022-09-13T01:07:40;5.13;;;4.60;;
17510;SDS011;8873;48.818;9.422;2022-09-13T01:10:08;9.00;;;4.78;;
17510;SDS011;8873;48.818;9.422;2022-09-13T01:12:37;4.55;;;4.07;;
17510;SDS011;8873;48.818;9.422;2022-09-13T01:15:09;8.85;;;4.78;;
17510;SDS011;8873;48.818;9.422;2022-09-13T01:17:37;8.80;;;4.68;;
17510;SDS011;8873;48.818;9.422;2022-09-13T01:20:07;5.05;;;4.28;;
17510;SDS011;8873;48.818;9.422;2022-09-13T01:22:43;4.50;;;4.05;;
17510;SDS011;8873;48.818;9.422;2022-09-13T01:25:25;7.30;;;4.50;;
17510;SDS011;8873;48.818;9.422;2022-09-13T01:28:11;9.02;;;5.30;;
17510;SDS011;8873;48.818;9.422;2022-09-13T01:30:45;6.68;;;4.82;;
17510;SDS011;8873;48.818;9.422;2022-09-13T01:33:21;6.80;;;4.57;;
17510;SDS011;8873;48.818;9.422;2022-09-13T01:38:44;7.10;;;5.03;;
17510;SDS011;8873;48.818;9.422;2022-09-13T01:41:20;5.88;;;4.93;;
17510;SDS011;8873;48.818;9.422;2022-09-13T01:43:51;10.38;;;5.00;;
17510;SDS011;8873;48.818;9.422;2022-09-13T01:46:23;8.85;;;4.72;;
17510;SDS011;8873;48.818;9.422;2022-09-13T01:48:54;7.20;;;4.57;;
17510;SDS011;8873;48.818;9.422;2022-09-13T01:51:23;6.68;;;5.68;;
17510;SDS011;8873;48.818;9.422;2022-09-13T01:53:54;11.63;;;6.38;;
17510;SDS011;8873;48.818;9.422;2022-09-13T01:56:25;8.18;;;4.95;;
17510;SDS011;8873;48.818;9.422;2022-09-13T01:58:55;8.40;;;5.43;;
17510;SDS011;8873;48.818;9.422;2022-09-13T02:01:27;6.15;;;4.60;;
17510;SDS011;8873;48.818;9.422;2022-09-13T02:03:57;6.03;;;4.90;;
17510;SDS011;8873;48.818;9.422;2022-09-13T02:06:29;8.02;;;5.00;;
17510;SDS011;8873;48.818;9.422;2022-09-13T02:08:58;8.07;;;5.45;;
17510;SDS011;8873;48.818;9.422;2022-09-13T02:11:27;9.57;;;5.28;;
17510;SDS011;8873;48.818;9.422;2022-09-13T02:13:55;7.28;;;4.68;;
17510;SDS011;8873;48.818;9.422;2022-09-13T02:16:25;8.50;;;4.75;;
17510;SDS011;8873;48.818;9.422;2022-09-13T02:18:56;9.30;;;5.43;;
17510;SDS011;8873;48.818;9.422;2022-09-13T02:21:25;7.20;;;4.28;;
17510;SDS011;8873;48.818;9.422;2022-09-13T02:23:57;6.95;;;4.90;;
17510;SDS011;8873;48.818;9.422;2022-09-13T02:26:26;7.03;;;4.22;;
17510;SDS011;8873;48.818;9.422;2022-09-13T02:28:56;7.97;;;4.80;;
17510;SDS011;8873;48.818;9.422;2022-09-13T02:31:25;7.57;;;4.47;;
17510;SDS011;8873;48.818;9.422;2022-09-13T02:33:55;7.90;;;5.18;;
17510;SDS011;8873;48.818;9.422;2022-09-13T02:36:24;7.43;;;4.95;;
17510;SDS011;8873;48.818;9.422;2022-09-13T02:38:52;12.02;;;4.82;;
17510;SDS011;8873;48.818;9.422;2022-09-13T02:41:22;8.68;;;5.10;;
17510;SDS011;8873;48.818;9.422;2022-09-13T02:43:54;6.78;;;4.57;;
17510;SDS011;8873;48.818;9.422;2022-09-13T02:46:28;7.95;;;4.90;;
17510;SDS011;8873;48.818;9.422;2022-09-13T02:49:04;8.18;;;5.03;;
17510;SDS011;8873;48.818;9.422;2022-09-13T02:51:35;5.43;;;4.70;;
17510;SDS011;8873;48.818;9.422;2022-09-13T02:54:08;6.53;;;4.35;;
17510;SDS011;8873;48.818;9.422;2022-09-13T02:56:43;12.55;;;5.05;;
17510;SDS011;8873;48.818;9.422;2022-09-13T02:59:15;6.35;;;4.75;;
17510;SDS011;8873;48.818;9.422;2022-09-13T03:01:44;7.88;;;5.28;;
17510;SDS011;8873;48.818;9.422;2022-09-13T03:04:14;9.82;;;5.05;;
17510;SDS011;8873;48.818;9.422;2022-09-13T03:06:42;8.13;;;5.30;;
17510;SDS011;8873;48.818;9.422;2022-09-13T03:09:10;10.95;;;6.47;;
17510;SDS011;8873;48.818;9.422;2022-09-13T03:11:45;9.05;;;5.75;;
17510;SDS011;8873;48.818;9.422;2022-09-13T03:14:18;7.35;;;4.97;;
17510;SDS011;8873;48.818;9.422;2022-09-13T03:16:53;11.07;;;5.63;;
17510;SDS011;8873;48.818;9.422;2022-09-13T03:19:29;6.22;;;4.55;;
17510;SDS011;8873;48.818;9.422;2022-09-13T03:22:12;10.07;;;6.22;;
17510;SDS011;8873;48.818;9.422;2022-09-13T03:24:45;6.95;;;5.10;;
17510;SDS011;8873;48.818;9.422;2022-09-13T03:27:17;10.32;;;5.15;;
17510;SDS011;8873;48.818;9.422;2022-09-13T03:29:54;6.07;;;4.97;;
17510;SDS011;8873;48.818;9.422;2022-09-13T03:32:23;5.05;;;4.55;;
17510;SDS011;8873;48.818;9.422;2022-09-13T03:34:57;6.63;;;4.88;;
17510;SDS011;8873;48.818;9.422;2022-09-13T03:37:30;9.02;;;5.20;;
17510;SDS011;8873;48.818;9.422;2022-09-13T03:40:02;12.68;;;5.10;;
17510;SDS011;8873;48.818;9.422;2022-09-13T03:42:39;7.82;;;4.90;;
17510;SDS011;8873;48.818;9.422;2022-09-13T03:45:09;7.05;;;5.18;;
17510;SDS011;8873;48.818;9.422;2022-09-13T03:47:39;8.95;;;5.85;;
17510;SDS011;8873;48.818;9.422;2022-09-13T03:50:09;11.00;;;6.10;;
17510;SDS011;8873;48.818;9.422;2022-09-13T03:52:38;9.82;;;5.57;;
17510;SDS011;8873;48.818;9.422;2022-09-13T03:55:11;10.52;;;5.75;;
17510;SDS011;8873;48.818;9.422;2022-09-13T03:57:39;17.30;;;5.60;;
17510;SDS011;8873;48.818;9.422;2022-09-13T04:00:07;7.25;;;5.20;;
17510;SDS011;8873;48.818;9.422;2022-09-13T04:02:36;7.28;;;5.30;;
17510;SDS011;8873;48.818;9.422;2022-09-13T04:05:04;10.38;;;5.68;;
17510;SDS011;8873;48.818;9.422;2022-09-13T04:07:33;6.63;;;5.10;;
17510;SDS011;8873;48.818;9.422;2022-09-13T04:10:01;8.95;;;5.65;;
17510;SDS011;8873;48.818;9.422;2022-09-13T04:12:28;9.18;;;5.95;;
17510;SDS011;8873;48.818;9.422;2022-09-13T04:14:56;9.40;;;5.60;;
17510;SDS011;8873;48.818;9.422;2022-09-13T04:17:23;9.27;;;5.90;;
17510;SDS011;8873;48.818;9.422;2022-09-13T04:19:51;7.68;;;6.20;;
17510;SDS011;8873;48.818;9.422;2022-09-13T04:22:19;11.13;;;5.88;;
17510;SDS011;8873;48.818;9.422;2022-09-13T04:24:48;8.80;;;6.53;;
17510;SDS011;8873;48.818;9.422;2022-09-13T04:27:18;9.50;;;6.07;;
17510;SDS011;8873;48.818;9.422;2022-09-13T04:29:46;7.20;;;5.68;;
17510;SDS011;8873;48.818;9.422;2022-09-13T04:32:14;8.95;;;5.63;;
17510;SDS011;8873;48.818;9.422;2022-09-13T04:34:42;9.63;;;5.20;;
17510;SDS011;8873;48.818;9.422;2022-09-13T04:37:10;6.93;;;5.43;;
17510;SDS011;8873;48.818;9.422;2022-09-13T04:39:38;7.10;;;5.45;;
17510;SDS011;8873;48.818;9.422;2022-09-13T04:42:11;7.57;;;5.38;;
17510;SDS011;8873;48.818;9.422;2022-09-13T04:44:40;9.57;;;5.63;;
17510;SDS011;8873;48.818;9.422;2022-09-13T04:47:10;11.05;;;5.43;;
17510;SDS011;8873;48.818;9.422;2022-09-13T04:49:38;9.38;;;5.30;;
17510;SDS011;8873;48.818;9.422;2022-09-13T04:52:06;8.50;;;5.20;;
17510;SDS011;8873;48.818;9.422;2022-09-13T04:54:35;8.88;;;5.10;;
17510;SDS011;8873;48.818;9.422;2022-09-13T04:57:03;10.40;;;5.53;;
17510;SDS011;8873;48.818;9.422;2022-09-13T04:59:32;11.88;;;4.95;;
17510;SDS011;8873;48.818;9.422;2022-09-13T05:02:00;6.88;;;4.68;;
17510;SDS011;8873;48.818;9.422;2022-09-13T05:04:28;6.68;;;4.85;;
17510;SDS011;8873;48.818;9.422;2022-09-13T05:06:59;6.57;;;5.25;;
17510;SDS011;8873;48.818;9.422;2022-09-13T05:09:26;6.53;;;4.85;;
17510;SDS011;8873;48.818;9.422;2022-09-13T05:11:54;10.77;;;5.50;;
17510;SDS011;8873;48.818;9.422;2022-09-13T05:14:22;9.85;;;5.35;;
17510;SDS011;8873;48.818;9.422;2022-09-13T05:16:51;8.38;;;5.60;;
17510;SDS011;8873;48.818;9.422;2022-09-13T05:19:19;6.68;;;5.20;;
17510;SDS011;8873;48.818;9.422;2022-09-13T05:21:46;9.90;;;4.88;;
17510;SDS011;8873;48.818;9.422;2022-09-13T05:24:14;6.50;;;5.20;;
17510;SDS011;8873;48.818;9.422;2022-09-13T05:26:44;7.32;;;5.25;;
17510;SDS011;8873;48.818;9.422;2022-09-13T05:29:12;6.55;;;5.10;;
17510;SDS011;8873;48.818;9.422;2022-09-13T05:31:41;7.80;;;5.80;;
17510;SDS011;8873;48.818;9.422;2022-09-13T05:34:12;11.75;;;5.00;;
17510;SDS011;8873;48.818;9.422;2022-09-13T05:36:40;8.23;;;5.60;;
17510;SDS011;8873;48.818;9.422;2022-09-13T05:39:11;8.40;;;5.57;;
17510;SDS011;8873;48.818;9.422;2022-09-13T05:41:59;6.63;;;4.55;;
17510;SDS011;8873;48.818;9.422;2022-09-13T05:44:26;5.20;;;4.38;;
17510;SDS011;8873;48.818;9.422;2022-09-13T05:46:54;8.13;;;4.95;;
17510;SDS011;8873;48.818;9.422;2022-09-13T05:49:24;6.90;;;5.03;;
17510;SDS011;8873;48.818;9.422;2022-09-13T05:51:52;9.52;;;4.82;;
17510;SDS011;8873;48.818;9.422;2022-09-13T05:54:23;9.70;;;5.10;;
17510;SDS011;8873;48.818;9.422;2022-09-13T05:56:51;9.25;;;4.85;;
17510;SDS011;8873;48.818;9.422;2022-09-13T05:59:22;7.35;;;4.95;;
17510;SDS011;8873;48.818;9.422;2022-09-13T06:01:58;7.15;;;5.22;;
17510;SDS011;8873;48.818;9.422;2022-09-13T06:04:34;8.07;;;5.07;;
17510;SDS011;8873;48.818;9.422;2022-09-13T06:07:02;6.07;;;5.10;;
17510;SDS011;8873;48.818;9.422;2022-09-13T06:09:30;6.82;;;5.30;;
17510;SDS011;8873;48.818;9.422;2022-09-13T06:11:58;7.13;;;5.18;;
17510;SDS011;8873;48.818;9.422;2022-09-13T06:14:28;10.48;;;5.70;;
17510;SDS011;8873;48.818;9.422;2022-09-13T06:16:58;9.82;;;4.93;;
17510;SDS011;8873;48.818;9.422;2022-09-13T06:19:26;8.50;;;5.07;;
17510;SDS011;8873;48.818;9.422;2022-09-13T06:21:56;9.80;;;5.35;;
17510;SDS011;8873;48.818;9.422;2022-09-13T06:24:24;7.88;;;5.05;;
17510;SDS011;8873;48.818;9.422;2022-09-13T06:26:52;8.98;;;5.20;;
17510;SDS011;8873;48.818;9.422;2022-09-13T06:29:20;9.70;;;5.65;;
17510;SDS011;8873;48.818;9.422;2022-09-13T06:31:48;9.07;;;5.00;;
17510;SDS011;8873;48.818;9.422;2022-09-13T06:34:16;11.02;;;5.25;;
17510;SDS011;8873;48.818;9.422;2022-09-13T06:36:52;7.18;;;4.90;;
17510;SDS011;8873;48.818;9.422;2022-09-13T06:39:22;9.02;;;5.40;;
17510;SDS011;8873;48.818;9.422;2022-09-13T06:41:50;8.00;;;5.40;;
17510;SDS011;8873;48.818;9.422;2022-09-13T06:44:18;13.93;;;5.53;;
17510;SDS011;8873;48.818;9.422;2022-09-13T06:46:54;9.38;;;5.00;;
17510;SDS011;8873;48.818;9.422;2022-09-13T06:49:30;9.88;;;5.45;;
17510;SDS011;8873;48.818;9.422;2022-09-13T06:51:58;10.63;;;6.28;;
17510;SDS011;8873;48.818;9.422;2022-09-13T06:54:29;6.70;;;5.47;;
17510;SDS011;8873;48.818;9.422;2022-09-13T06:56:57;9.48;;;6.07;;
17510;SDS011;8873;48.818;9.422;2022-09-13T06:59:25;10.32;;;6.07;;
17510;SDS011;8873;48.818;9.422;2022-09-13T07:02:04;12.07;;;5.60;;
17510;SDS011;8873;48.818;9.422;2022-09-13T07:04:37;9.07;;;5.65;;
17510;SDS011;8873;48.818;9.422;2022-09-13T07:07:10;7.60;;;5.65;;
17510;SDS011;8873;48.818;9.422;2022-09-13T07:09:39;7.70;;;5.45;;
17510;SDS011;8873;48.818;9.422;2022-09-13T07:12:08;7.93;;;5.43;;
17510;SDS011;8873;48.818;9.422;2022-09-13T07:14:36;10.60;;;5.30;;
17510;SDS011;8873;48.818;9.422;2022-09-13T07:17:03;6.65;;;5.07;;
17510;SDS011;8873;48.818;9.422;2022-09-13T07:19:33;9.57;;;5.10;;
17510;SDS011;8873;48.818;9.422;2022-09-13T07:22:01;10.88;;;4.80;;
17510;SDS011;8873;48.818;9.422;2022-09-13T07:24:37;8.82;;;4.90;;
17510;SDS011;8873;48.818;9.422;2022-09-13T07:27:06;10.55;;;5.25;;
17510;SDS011;8873;48.818;9.422;2022-09-13T07:29:33;6.75;;;4.72;;
17510;SDS011;8873;48.818;9.422;2022-09-13T07:32:01;7.65;;;5.00;;
17510;SDS011;8873;48.818;9.422;2022-09-13T07:34:29;6.53;;;4.78;;
17510;SDS011;8873;48.818;9.422;2022-09-13T07:36:56;5.85;;;4.15;;
17510;SDS011;8873;48.818;9.422;2022-09-13T07:39:24;6.60;;;4.18;;
17510;SDS011;8873;48.818;9.422;2022-09-13T07:41:52;7.28;;;4.72;;
17510;SDS011;8873;48.818;9.422;2022-09-13T07:44:21;7.47;;;4.80;;
17510;SDS011;8873;48.818;9.422;2022-09-13T07:46:49;11.85;;;5.65;;
17510;SDS011;8873;48.818;9.422;2022-09-13T07:49:17;5.97;;;4.22;;
17510;SDS011;8873;48.818;9.422;2022-09-13T07:51:45;7.45;;;4.53;;
17510;SDS011;8873;48.818;9.422;2022-09-13T07:54:16;7.63;;;4.50;;
17510;SDS011;8873;48.818;9.422;2022-09-13T07:56:44;7.78;;;4.68;;
17510;SDS011;8873;48.818;9.422;2022-09-13T07:59:12;5.32;;;4.38;;
17510;SDS011;8873;48.818;9.422;2022-09-13T08:01:42;5.00;;;4.38;;
17510;SDS011;8873;48.818;9.422;2022-09-13T08:04:11;5.25;;;3.90;;
17510;SDS011;8873;48.818;9.422;2022-09-13T08:06:39;12.02;;;4.38;;
17510;SDS011;8873;48.818;9.422;2022-09-13T08:09:07;4.30;;;3.90;;
17510;SDS011;8873;48.818;9.422;2022-09-13T08:11:36;7.22;;;3.90;;
17510;SDS011;8873;48.818;9.422;2022-09-13T08:14:04;6.13;;;3.80;;
17510;SDS011;8873;48.818;9.422;2022-09-13T08:16:32;8.23;;;4.55;;
17510;SDS011;8873;48.818;9.422;2022-09-13T08:19:01;3.90;;;3.47;;
17510;SDS011;8873;48.818;9.422;2022-09-13T08:21:33;5.53;;;3.33;;
17510;SDS011;8873;48.818;9.422;2022-09-13T08:24:01;5.13;;;3.65;;
17510;SDS011;8873;48.818;9.422;2022-09-13T08:26:30;4.88;;;3.65;;
17510;SDS011;8873;48.818;9.422;2022-09-13T08:28:58;4.70;;;2.92;;
17510;SDS011;8873;48.818;9.422;2022-09-13T08:31:28;3.65;;;3.00;;
17510;SDS011;8873;48.818;9.422;2022-09-13T08:33:56;2.90;;;2.70;;
17510;SDS011;8873;48.818;9.422;2022-09-13T08:36:26;3.50;;;2.90;;
17510;SDS011;8873;48.818;9.422;2022-09-13T08:38:54;3.17;;;2.63;;
17510;SDS011;8873;48.818;9.422;2022-09-13T08:41:26;3.15;;;2.60;;
17510;SDS011;8873;48.818;9.422;2022-09-13T08:43:59;3.20;;;2.90;;
17510;SDS011;8873;48.818;9.422;2022-09-13T08:46:31;8.27;;;2.60;;
17510;SDS011;8873;48.818;9.422;2022-09-13T08:49:00;3.92;;;2.35;;
17510;SDS011;8873;48.818;9.422;2022-09-13T08:51:30;4.22;;;2.67;;
17510;SDS011;8873;48.818;9.422;2022-09-13T08:53:58;2.25;;;2.10;;
17510;SDS011;8873;48.818;9.422;2022-09-13T08:56:31;3.40;;;2.20;;
17510;SDS011;8873;48.818;9.422;2022-09-13T08:59:05;4.10;;;2.03;;
17510;SDS011;8873;48.818;9.422;2022-09-13T09:01:39;2.55;;;2.40;;
17510;SDS011;8873;48.818;9.422;2022-09-13T09:04:11;4.60;;;2.45;;
17510;SDS011;8873;48.818;9.422;2022-09-13T09:06:42;3.80;;;2.17;;
17510;SDS011;8873;48.818;9.422;2022-09-13T09:09:12;2.75;;;2.25;;
17510;SDS011;8873;48.818;9.422;2022-09-13T09:11:43;2.55;;;2.25;;
17510;SDS011;8873;48.818;9.422;2022-09-13T09:14:16;2.80;;;1.90;;
17510;SDS011;8873;48.818;9.422;2022-09-13T09:16:48;2.22;;;2.13;;
17510;SDS011;8873;48.818;9.422;2022-09-13T09:19:20;2.05;;;1.95;;
17510;SDS011;8873;48.818;9.422;2022-09-13T09:21:52;3.75;;;1.88;;
17510;SDS011;8873;48.818;9.422;2022-09-13T09:24:20;3.78;;;2.00;;
17510;SDS011;8873;48.818;9.422;2022-09-13T09:26:48;3.47;;;2.17;;
17510;SDS011;8873;48.818;9.422;2022-09-13T09:29:17;1.80;;;1.70;;
17510;SDS011;8873;48.818;9.422;2022-09-13T09:31:53;2.22;;;1.98;;
17510;SDS011;8873;48.818;9.422;2022-09-13T09:34:26;1.90;;;1.80;;
17510;SDS011;8873;48.818;9.422;2022-09-13T09:37:00;5.80;;;2.03;;
17510;SDS011;8873;48.818;9.422;2022-09-13T09:39:32;2.25;;;2.03;;
17510;SDS011;8873;48.818;9.422;2022-09-13T09:42:04;1.90;;;1.80;;
17510;SDS011;8873;48.818;9.422;2022-09-13T09:44:32;3.55;;;2.10;;
17510;SDS011;8873;48.818;9.422;2022-09-13T09:47:02;2.35;;;2.20;;
17510;SDS011;8873;48.818;9.422;2022-09-13T09:49:31;1.90;;;1.70;;
17510;SDS011;8873;48.818;9.422;2022-09-13T09:52:20;3.20;;;1.77;;
17510;SDS011;8873;48.818;9.422;2022-09-13T09:54:48;1.70;;;1.60;;
17510;SDS011;8873;48.818;9.422;2022-09-13T09:57:16;2.15;;;1.95;;
17510;SDS011;8873;48.818;9.422;2022-09-13T09:59:45;3.33;;;2.05;;
17510;SDS011;8873;48.818;9.422;2022-09-13T10:02:14;3.85;;;2.00;;
17510;SDS011;8873;48.818;9.422;2022-09-13T10:04:43;1.90;;;1.80;;
17510;SDS011;8873;48.818;9.422;2022-09-13T10:07:23;4.60;;;2.35;;
17510;SDS011;8873;48.818;9.422;2022-09-13T10:09:55;2.30;;;2.10;;
17510;SDS011;8873;48.818;9.422;2022-09-13T10:12:27;2.13;;;2.00;;
17510;SDS011;8873;48.818;9.422;2022-09-13T10:15:03;3.80;;;2.13;;
17510;SDS011;8873;48.818;9.422;2022-09-13T10:17:31;1.92;;;1.83;;
17510;SDS011;8873;48.818;9.422;2022-09-13T10:19:59;1.58;;;1.58;;
17510;SDS011;8873;48.818;9.422;2022-09-13T10:22:29;1.90;;;1.80;;
17510;SDS011;8873;48.818;9.422;2022-09-13T10:25:10;1.83;;;1.67;;
17510;SDS011;8873;48.818;9.422;2022-09-13T10:27:40;2.13;;;1.60;;
17510;SDS011;8873;48.818;9.422;2022-09-13T10:30:30;4.15;;;1.90;;
17510;SDS011;8873;48.818;9.422;2022-09-13T10:32:59;3.13;;;1.80;;
17510;SDS011;8873;48.818;9.422;2022-09-13T10:35:27;1.80;;;1.70;;
17510;SDS011;8873;48.818;9.422;2022-09-13T10:37:56;1.85;;;1.60;;
17510;SDS011;8873;48.818;9.422;2022-09-13T10:40:25;1.70;;;1.60;;
17510;SDS011;8873;48.818;9.422;2022-09-13T10:42:55;2.78;;;1.88;;
17510;SDS011;8873;48.818;9.422;2022-09-13T10:45:23;1.77;;;1.75;;
17510;SDS011;8873;48.818;9.422;2022-09-13T10:47:51;2.78;;;2.05;;
17510;SDS011;8873;48.818;9.422;2022-09-13T10:50:21;2.58;;;1.52;;
17510;SDS011;8873;48.818;9.422;2022-09-13T10:52:49;1.30;;;1.20;;
17510;SDS011;8873;48.818;9.422;2022-09-13T10:55:29;2.45;;;1.40;;
17510;SDS011;8873;48.818;9.422;2022-09-13T10:58:13;3.58;;;1.65;;
17510;SDS011;8873;48.818;9.422;2022-09-13T11:00:44;1.30;;;1.20;;
17510;SDS011;8873;48.818;9.422;2022-09-13T11:03:18;1.20;;;1.20;;
17510;SDS011;8873;48.818;9.422;2022-09-13T11:05:52;2.65;;;1.10;;
17510;SDS011;8873;48.818;9.422;2022-09-13T11:08:28;1.58;;;1.48;;
17510;SDS011;8873;48.818;9.422;2022-09-13T11:11:05;1.38;;;1.27;;
17510;SDS011;8873;48.818;9.422;2022-09-13T11:13:39;1.67;;;1.33;;
17510;SDS011;8873;48.818;9.422;2022-09-13T11:16:15;2.63;;;1.30;;
17510;SDS011;8873;48.818;9.422;2022-09-13T11:18:57;3.10;;;1.50;;
17510;SDS011;8873;48.818;9.422;2022-09-13T11:21:42;2.03;;;1.50;;
17510;SDS011;8873;48.818;9.422;2022-09-13T11:24:16;1.30;;;1.20;;
17510;SDS011;8873;48.818;9.422;2022-09-13T11:26:51;1.30;;;1.20;;
17510;SDS011;8873;48.818;9.422;2022-09-13T11:29:25;1.90;;;1.50;;
17510;SDS011;8873;48.818;9.422;2022-09-13T11:31:58;1.70;;;1.50;;
17510;SDS011;8873;48.818;9.422;2022-09-13T11:34:31;1.80;;;1.40;;
17510;SDS011;8873;48.818;9.422;2022-09-13T11:37:12;1.13;;;1.10;;
17510;SDS011;8873;48.818;9.422;2022-09-13T11:39:44;2.97;;;1.45;;
17510;SDS011;8873;48.818;9.422;2022-09-13T11:42:20;1.20;;;1.20;;
17510;SDS011;8873;48.818;9.422;2022-09-13T11:44:56;2.17;;;1.40;;
17510;SDS011;8873;48.818;9.422;2022-09-13T11:47:30;1.23;;;1.20;;
17510;SDS011;8873;48.818;9.422;2022-09-13T11:50:05;5.70;;;1.25;;
17510;SDS011;8873;48.818;9.422;2022-09-13T11:52:39;4.55;;;1.52;;
17510;SDS011;8873;48.818;9.422;2022-09-13T11:55:12;2.15;;;1.60;;
17510;SDS011;8873;48.818;9.422;2022-09-13T11:57:43;4.47;;;1.33;;
17510;SDS011;8873;48.818;9.422;2022-09-13T12:00:14;1.50;;;1.40;;
17510;SDS011;8873;48.818;9.422;2022-09-13T12:02:46;1.30;;;1.30;;
17510;SDS011;8873;48.818;9.422;2022-09-13T12:05:16;1.73;;;1.25;;
17510;SDS011;8873;48.818;9.422;2022-09-13T12:07:50;1.25;;;1.25;;
17510;SDS011;8873;48.818;9.422;2022-09-13T12:10:21;2.30;;;1.35;;
17510;SDS011;8873;48.818;9.422;2022-09-13T12:12:51;1.98;;;1.35;;
17510;SDS011;8873;48.818;9.422;2022-09-13T12:15:21;1.50;;;1.40;;
17510;SDS011;8873;48.818;9.422;2022-09-13T12:17:51;1.20;;;1.20;;
17510;SDS011;8873;48.818;9.422;2022-09-13T12:20:24;1.23;;;1.13;;
17510;SDS011;8873;48.818;9.422;2022-09-13T12:22:56;1.30;;;1.30;;
17510;SDS011;8873;48.818;9.422;2022-09-13T12:25:35;1.20;;;1.20;;
17510;SDS011;8873;48.818;9.422;2022-09-13T12:28:05;2.60;;;1.30;;
17510;SDS011;8873;48.818;9.422;2022-09-13T12:30:38;1.10;;;1.10;;
17510;SDS011;8873;48.818;9.422;2022-09-13T12:33:10;1.45;;;1.13;;
17510;SDS011;8873;48.818;9.422;2022-09-13T12:35:41;3.03;;;1.30;;
17510;SDS011;8873;48.818;9.422;2022-09-13T12:38:13;1.20;;;1.20;;
17510;SDS011;8873;48.818;9.422;2022-09-13T12:40:57;1.40;;;1.30;;
17510;SDS011;8873;48.818;9.422;2022-09-13T12:43:33;1.17;;;1.13;;
17510;SDS011;8873;48.818;9.422;2022-09-13T12:46:08;1.30;;;1.08;;
17510;SDS011;8873;48.818;9.422;2022-09-13T12:48:45;2.05;;;1.20;;
17510;SDS011;8873;48.818;9.422;2022-09-13T12:51:20;3.35;;;1.63;;
17510;SDS011;8873;48.818;9.422;2022-09-13T12:54:07;1.30;;;1.30;;
17510;SDS011;8873;48.818;9.422;2022-09-13T12:56:51;1.05;;;1.05;;
17510;SDS011;8873;48.818;9.422;2022-09-13T12:59:34;1.30;;;1.30;;
17510;SDS011;8873;48.818;9.422;2022-09-13T13:02:22;1.58;;;1.48;;
17510;SDS011;8873;48.818;9.422;2022-09-13T13:04:50;1.95;;;1.20;;
17510;SDS011;8873;48.818;9.422;2022-09-13T13:07:20;1.40;;;1.33;;
17510;SDS011;8873;48.818;9.422;2022-09-13T13:09:49;1.20;;;1.20;;
17510;SDS011;8873;48.818;9.422;2022-09-13T13:12:26;1.35;;;1.30;;
17510;SDS011;8873;48.818;9.422;2022-09-13T13:14:56;1.35;;;1.20;;
17510;SDS011;8873;48.818;9.422;2022-09-13T13:23:03;1.15;;;1.15;;
17510;SDS011;8873;48.818;9.422;2022-09-13T13:25:32;1.90;;;1.20;;
17510;SDS011;8873;48.818;9.422;2022-09-13T13:28:01;1.13;;;1.13;;
17510;SDS011;8873;48.818;9.422;2022-09-13T13:30:41;1.25;;;1.25;;
17510;SDS011;8873;48.818;9.422;2022-09-13T13:33:12;4.68;;;1.20;;
17510;SDS011;8873;48.818;9.422;2022-09-13T13:35:41;1.17;;;1.17;;
17510;SDS011;8873;48.818;9.422;2022-09-13T13:38:16;2.92;;;1.17;;
17510;SDS011;8873;48.818;9.422;2022-09-13T13:41:02;1.10;;;1.10;;
17510;SDS011;8873;48.818;9.422;2022-09-13T13:43:37;1.10;;;1.10;;
17510;SDS011;8873;48.818;9.422;2022-09-13T13:48:53;0.90;;;0.90;;
17510;SDS011;8873;48.818;9.422;2022-09-13T13:51:21;1.95;;;1.30;;
17510;SDS011;8873;48.818;9.422;2022-09-13T13:53:51;3.13;;;0.88;;
17510;SDS011;8873;48.818;9.422;2022-09-13T13:56:21;2.67;;;1.02;;
17510;SDS011;8873;48.818;9.422;2022-09-13T13:58:50;1.02;;;1.02;;
17510;SDS011;8873;48.818;9.422;2022-09-13T14:01:21;1.02;;;1.00;;
17510;SDS011;8873;48.818;9.422;2022-09-13T14:06:35;0.95;;;0.95;;
17510;SDS011;8873;48.818;9.422;2022-09-13T14:09:06;1.20;;;1.20;;
17510;SDS011;8873;48.818;9.422;2022-09-13T14:11:40;1.10;;;1.10;;
17510;SDS011;8873;48.818;9.422;2022-09-13T14:14:15;1.00;;;1.00;;
17510;SDS011;8873;48.818;9.422;2022-09-13T14:16:52;1.50;;;1.13;;
17510;SDS011;8873;48.818;9.422;2022-09-13T14:19:23;1.80;;;1.33;;
17510;SDS011;8873;48.818;9.422;2022-09-13T14:22:06;1.45;;;1.35;;
17510;SDS011;8873;48.818;9.422;2022-09-13T14:24:38;1.10;;;1.10;;
17510;SDS011;8873;48.818;9.422;2022-09-13T14:27:12;1.10;;;1.10;;
17510;SDS011;8873;48.818;9.422;2022-09-13T14:29:43;1.13;;;1.13;;
17510;SDS011;8873;48.818;9.422;2022-09-13T14:32:11;1.13;;;0.93;;
17510;SDS011;8873;48.818;9.422;2022-09-13T14:34:48;1.30;;;1.20;;
17510;SDS011;8873;48.818;9.422;2022-09-13T14:37:18;1.10;;;1.10;;
17510;SDS011;8873;48.818;9.422;2022-09-13T14:39:54;1.85;;;1.00;;
17510;SDS011;8873;48.818;9.422;2022-09-13T14:42:22;1.88;;;1.00;;
17510;SDS011;8873;48.818;9.422;2022-09-13T14:44:49;1.10;;;1.10;;
17510;SDS011;8873;48.818;9.422;2022-09-13T14:47:18;1.27;;;1.20;;
17510;SDS011;8873;48.818;9.422;2022-09-13T14:49:48;1.08;;;1.02;;
17510;SDS011;8873;48.818;9.422;2022-09-13T14:52:20;1.73;;;1.10;;
17510;SDS011;8873;48.818;9.422;2022-09-13T14:54:50;1.52;;;1.48;;
17510;SDS011;8873;48.818;9.422;2022-09-13T14:57:21;1.33;;;1.23;;
17510;SDS011;8873;48.818;9.422;2022-09-13T14:59:50;1.17;;;1.10;;
17510;SDS011;8873;48.818;9.422;2022-09-13T15:02:20;1.00;;;1.00;;
17510;SDS011;8873;48.818;9.422;2022-09-13T15:04:49;1.75;;;1.00;;
17510;SDS011;8873;48.818;9.422;2022-09-13T15:07:20;1.10;;;1.10;;
17510;SDS011;8873;48.818;9.422;2022-09-13T15:09:49;1.38;;;1.10;;
17510;SDS011;8873;48.818;9.422;2022-09-13T15:12:21;2.97;;;1.38;;
17510;SDS011;8873;48.818;9.422;2022-09-13T15:20:15;1.45;;;1.33;;
17510;SDS011;8873;48.818;9.422;2022-09-13T15:22:45;2.20;;;1.50;;
17510;SDS011;8873;48.818;9.422;2022-09-13T15:25:15;1.20;;;1.20;;
17510;SDS011;8873;48.818;9.422;2022-09-13T15:27:45;2.08;;;1.20;;
17510;SDS011;8873;48.818;9.422;2022-09-13T15:30:21;1.60;;;1.13;;
17510;SDS011;8873;48.818;9.422;2022-09-13T15:32:49;2.65;;;2.17;;
17510;SDS011;8873;48.818;9.422;2022-09-13T15:35:33;1.00;;;1.00;;
17510;SDS011;8873;48.818;9.422;2022-09-13T15:38:15;1.10;;;1.10;;
17510;SDS011;8873;48.818;9.422;2022-09-13T15:40:43;1.27;;;1.15;;
17510;SDS011;8873;48.818;9.422;2022-09-13T15:43:11;1.25;;;1.25;;